sensor_id;sensor_type;location;lat;lon;timestamp;temperature;humidity
65046;DHT22;54657;52.022;5.534;2023-04-28T00:01:41;11.50;50.30
65046;DHT22;54657;52.022;5.534;2023-04-28T00:04:07;11.50;50.30
65046;DHT22;54657;52.022;5.534;2023-04-28T00:06:32;11.40;50.30
65046;DHT22;54657;52.022;5.534;2023-04-28T00:08:58;11.50;50.30
65046;DHT22;54657;52.022;5.534;2023-04-28T00:11:24;11.40;50.30
65046;DHT22;54657;52.022;5.534;2023-04-28T00:13:50;11.40;50.50
65046;DHT22;54657;52.022;5.534;2023-04-28T00:16:16;11.40;50.40
65046;DHT22;54657;52.022;5.534;2023-04-28T00:18:41;11.40;50.40
65046;DHT22;54657;52.022;5.534;2023-04-28T00:21:07;11.40;50.50
65046;DHT22;54657;52.022;5.534;2023-04-28T00:23:33;11.40;50.60
65046;DHT22;54657;52.022;5.534;2023-04-28T00:25:58;11.40;50.60
65046;DHT22;54657;52.022;5.534;2023-04-28T00:28:24;11.30;50.60
65046;DHT22;54657;52.022;5.534;2023-04-28T00:30:49;11.30;50.60
65046;DHT22;54657;52.022;5.534;2023-04-28T00:33:15;11.30;50.70
65046;DHT22;54657;52.022;5.534;2023-04-28T00:35:40;11.30;50.80
65046;DHT22;54657;52.022;5.534;2023-04-28T00:38:07;11.30;50.90
65046;DHT22;54657;52.022;5.534;2023-04-28T00:40:37;11.30;50.70
65046;DHT22;54657;52.022;5.534;2023-04-28T00:43:02;11.30;50.90
65046;DHT22;54657;52.022;5.534;2023-04-28T00:45:28;11.30;50.90
65046;DHT22;54657;52.022;5.534;2023-04-28T00:47:54;11.30;50.90
65046;DHT22;54657;52.022;5.534;2023-04-28T00:50:23;11.30;50.90
65046;DHT22;54657;52.022;5.534;2023-04-28T00:52:50;11.30;50.90
65046;DHT22;54657;52.022;5.534;2023-04-28T00:55:16;11.30;51.40
65046;DHT22;54657;52.022;5.534;2023-04-28T00:57:42;11.30;51.70
65046;DHT22;54657;52.022;5.534;2023-04-28T01:00:08;11.30;52.00
65046;DHT22;54657;52.022;5.534;2023-04-28T01:02:35;11.30;52.00
65046;DHT22;54657;52.022;5.534;2023-04-28T01:05:01;11.30;52.10
65046;DHT22;54657;52.022;5.534;2023-04-28T01:07:27;11.30;52.60
65046;DHT22;54657;52.022;5.534;2023-04-28T01:09:53;11.20;52.50
65046;DHT22;54657;52.022;5.534;2023-04-28T01:12:19;11.20;52.70
65046;DHT22;54657;52.022;5.534;2023-04-28T01:14:45;11.20;52.90
65046;DHT22;54657;52.022;5.534;2023-04-28T01:17:11;11.20;53.30
65046;DHT22;54657;52.022;5.534;2023-04-28T01:19:37;11.20;53.20
65046;DHT22;54657;52.022;5.534;2023-04-28T01:22:02;11.20;53.20
65046;DHT22;54657;52.022;5.534;2023-04-28T01:24:29;11.20;53.20
65046;DHT22;54657;52.022;5.534;2023-04-28T01:26:54;11.10;53.40
65046;DHT22;54657;52.022;5.534;2023-04-28T01:29:20;11.10;53.30
65046;DHT22;54657;52.022;5.534;2023-04-28T01:31:46;11.10;53.10
65046;DHT22;54657;52.022;5.534;2023-04-28T01:34:11;11.10;53.20
65046;DHT22;54657;52.022;5.534;2023-04-28T01:36:37;11.10;53.40
65046;DHT22;54657;52.022;5.534;2023-04-28T01:39:03;11.00;53.50
65046;DHT22;54657;52.022;5.534;2023-04-28T01:41:29;11.00;53.30
65046;DHT22;54657;52.022;5.534;2023-04-28T01:43:54;11.00;53.70
65046;DHT22;54657;52.022;5.534;2023-04-28T01:46:20;11.00;53.70
65046;DHT22;54657;52.022;5.534;2023-04-28T01:48:45;11.10;53.70
65046;DHT22;54657;52.022;5.534;2023-04-28T01:51:12;11.10;53.70
65046;DHT22;54657;52.022;5.534;2023-04-28T01:53:37;11.10;54.40
65046;DHT22;54657;52.022;5.534;2023-04-28T01:56:03;11.10;53.50
65046;DHT22;54657;52.022;5.534;2023-04-28T01:58:29;11.00;53.70
65046;DHT22;54657;52.022;5.534;2023-04-28T02:00:54;11.00;54.00
65046;DHT22;54657;52.022;5.534;2023-04-28T02:03:20;11.00;53.60
65046;DHT22;54657;52.022;5.534;2023-04-28T02:05:45;10.90;54.60
65046;DHT22;54657;52.022;5.534;2023-04-28T02:08:11;10.90;53.70
65046;DHT22;54657;52.022;5.534;2023-04-28T02:10:37;10.90;54.20
65046;DHT22;54657;52.022;5.534;2023-04-28T02:13:02;10.90;54.40
65046;DHT22;54657;52.022;5.534;2023-04-28T02:15:28;10.90;53.90
65046;DHT22;54657;52.022;5.534;2023-04-28T02:17:53;10.90;54.10
65046;DHT22;54657;52.022;5.534;2023-04-28T02:20:19;10.90;54.40
65046;DHT22;54657;52.022;5.534;2023-04-28T02:22:45;11.00;54.30
65046;DHT22;54657;52.022;5.534;2023-04-28T02:25:10;11.00;54.20
65046;DHT22;54657;52.022;5.534;2023-04-28T02:27:36;11.00;54.20
65046;DHT22;54657;52.022;5.534;2023-04-28T02:30:06;10.90;54.30
65046;DHT22;54657;52.022;5.534;2023-04-28T02:32:31;10.90;54.30
65046;DHT22;54657;52.022;5.534;2023-04-28T02:34:57;10.90;54.20
65046;DHT22;54657;52.022;5.534;2023-04-28T02:37:23;10.90;54.30
65046;DHT22;54657;52.022;5.534;2023-04-28T02:39:48;10.90;54.20
65046;DHT22;54657;52.022;5.534;2023-04-28T02:42:14;10.90;54.40
65046;DHT22;54657;52.022;5.534;2023-04-28T02:44:40;10.90;54.40
65046;DHT22;54657;52.022;5.534;2023-04-28T02:47:05;10.80;54.50
65046;DHT22;54657;52.022;5.534;2023-04-28T02:49:31;10.80;54.30
65046;DHT22;54657;52.022;5.534;2023-04-28T02:51:56;10.80;54.60
65046;DHT22;54657;52.022;5.534;2023-04-28T02:54:22;10.80;54.90
65046;DHT22;54657;52.022;5.534;2023-04-28T02:56:57;10.80;54.40
65046;DHT22;54657;52.022;5.534;2023-04-28T02:59:23;10.90;54.80
65046;DHT22;54657;52.022;5.534;2023-04-28T03:01:49;10.90;54.40
65046;DHT22;54657;52.022;5.534;2023-04-28T03:04:16;10.80;54.40
65046;DHT22;54657;52.022;5.534;2023-04-28T03:06:42;10.80;54.40
65046;DHT22;54657;52.022;5.534;2023-04-28T03:09:09;10.80;54.60
65046;DHT22;54657;52.022;5.534;2023-04-28T03:11:35;10.80;54.40
65046;DHT22;54657;52.022;5.534;2023-04-28T03:14:00;10.80;54.60
65046;DHT22;54657;52.022;5.534;2023-04-28T03:16:26;10.80;54.40
65046;DHT22;54657;52.022;5.534;2023-04-28T03:18:51;10.80;54.50
65046;DHT22;54657;52.022;5.534;2023-04-28T03:21:17;10.80;54.50
65046;DHT22;54657;52.022;5.534;2023-04-28T03:23:43;10.80;54.70
65046;DHT22;54657;52.022;5.534;2023-04-28T03:26:08;10.80;54.50
65046;DHT22;54657;52.022;5.534;2023-04-28T03:28:34;10.80;54.70
65046;DHT22;54657;52.022;5.534;2023-04-28T03:30:59;10.70;54.70
65046;DHT22;54657;52.022;5.534;2023-04-28T03:33:25;10.80;54.60
65046;DHT22;54657;52.022;5.534;2023-04-28T03:35:51;10.80;54.40
65046;DHT22;54657;52.022;5.534;2023-04-28T03:38:17;10.80;54.40
65046;DHT22;54657;52.022;5.534;2023-04-28T03:40:43;10.70;54.40
65046;DHT22;54657;52.022;5.534;2023-04-28T03:43:09;10.80;54.70
65046;DHT22;54657;52.022;5.534;2023-04-28T03:45:34;10.70;54.50
65046;DHT22;54657;52.022;5.534;2023-04-28T03:48:00;10.80;54.60
65046;DHT22;54657;52.022;5.534;2023-04-28T03:50:25;10.80;54.70
65046;DHT22;54657;52.022;5.534;2023-04-28T03:52:51;10.80;54.80
65046;DHT22;54657;52.022;5.534;2023-04-28T03:55:16;10.80;54.80
65046;DHT22;54657;52.022;5.534;2023-04-28T03:57:42;10.80;54.70
65046;DHT22;54657;52.022;5.534;2023-04-28T04:00:08;10.90;54.70
65046;DHT22;54657;52.022;5.534;2023-04-28T04:02:34;10.90;54.70
65046;DHT22;54657;52.022;5.534;2023-04-28T04:05:00;10.80;55.20
65046;DHT22;54657;52.022;5.534;2023-04-28T04:07:25;10.80;54.90
65046;DHT22;54657;52.022;5.534;2023-04-28T04:09:51;10.80;55.00
65046;DHT22;54657;52.022;5.534;2023-04-28T04:12:16;10.80;55.40
65046;DHT22;54657;52.022;5.534;2023-04-28T04:14:42;10.80;55.20
65046;DHT22;54657;52.022;5.534;2023-04-28T04:17:08;10.80;55.20
65046;DHT22;54657;52.022;5.534;2023-04-28T04:19:34;10.80;54.90
65046;DHT22;54657;52.022;5.534;2023-04-28T04:21:59;10.80;55.20
65046;DHT22;54657;52.022;5.534;2023-04-28T04:24:25;10.80;55.50
65046;DHT22;54657;52.022;5.534;2023-04-28T04:26:50;10.80;55.40
65046;DHT22;54657;52.022;5.534;2023-04-28T04:29:16;10.80;55.40
65046;DHT22;54657;52.022;5.534;2023-04-28T04:31:41;10.90;55.40
65046;DHT22;54657;52.022;5.534;2023-04-28T04:34:09;10.90;55.60
65046;DHT22;54657;52.022;5.534;2023-04-28T04:36:35;10.90;55.70
65046;DHT22;54657;52.022;5.534;2023-04-28T04:39:01;10.90;55.70
65046;DHT22;54657;52.022;5.534;2023-04-28T04:41:27;10.90;55.60
65046;DHT22;54657;52.022;5.534;2023-04-28T04:43:52;10.90;55.80
65046;DHT22;54657;52.022;5.534;2023-04-28T04:46:18;11.00;55.90
65046;DHT22;54657;52.022;5.534;2023-04-28T04:48:43;11.00;55.80
65046;DHT22;54657;52.022;5.534;2023-04-28T04:51:09;11.00;55.90
65046;DHT22;54657;52.022;5.534;2023-04-28T04:53:35;11.00;55.90
65046;DHT22;54657;52.022;5.534;2023-04-28T04:56:01;11.00;56.00
65046;DHT22;54657;52.022;5.534;2023-04-28T04:58:27;11.00;56.10
65046;DHT22;54657;52.022;5.534;2023-04-28T05:00:52;11.00;56.20
65046;DHT22;54657;52.022;5.534;2023-04-28T05:03:18;11.00;56.40
65046;DHT22;54657;52.022;5.534;2023-04-28T05:05:44;11.00;56.70
65046;DHT22;54657;52.022;5.534;2023-04-28T05:08:10;11.00;56.80
65046;DHT22;54657;52.022;5.534;2023-04-28T05:10:36;11.00;57.40
65046;DHT22;54657;52.022;5.534;2023-04-28T05:13:01;11.10;57.00
65046;DHT22;54657;52.022;5.534;2023-04-28T05:15:27;11.10;57.20
65046;DHT22;54657;52.022;5.534;2023-04-28T05:17:53;11.10;57.30
65046;DHT22;54657;52.022;5.534;2023-04-28T05:20:18;11.10;57.60
65046;DHT22;54657;52.022;5.534;2023-04-28T05:22:44;11.20;57.50
65046;DHT22;54657;52.022;5.534;2023-04-28T05:25:10;11.10;57.20
65046;DHT22;54657;52.022;5.534;2023-04-28T05:27:36;11.10;57.50
65046;DHT22;54657;52.022;5.534;2023-04-28T05:30:08;11.10;57.80
65046;DHT22;54657;52.022;5.534;2023-04-28T05:32:36;11.10;58.60
65046;DHT22;54657;52.022;5.534;2023-04-28T05:35:01;11.10;58.40
65046;DHT22;54657;52.022;5.534;2023-04-28T05:37:27;11.10;58.30
65046;DHT22;54657;52.022;5.534;2023-04-28T05:39:53;11.10;58.60
65046;DHT22;54657;52.022;5.534;2023-04-28T05:42:18;11.10;58.80
65046;DHT22;54657;52.022;5.534;2023-04-28T05:44:44;11.10;58.30
65046;DHT22;54657;52.022;5.534;2023-04-28T05:47:10;11.10;58.60
65046;DHT22;54657;52.022;5.534;2023-04-28T05:49:36;11.10;58.40
65046;DHT22;54657;52.022;5.534;2023-04-28T05:52:02;11.10;59.00
65046;DHT22;54657;52.022;5.534;2023-04-28T05:54:28;11.10;59.00
65046;DHT22;54657;52.022;5.534;2023-04-28T05:56:53;11.10;59.00
65046;DHT22;54657;52.022;5.534;2023-04-28T05:59:19;11.00;59.60
65046;DHT22;54657;52.022;5.534;2023-04-28T06:01:45;11.00;59.90
65046;DHT22;54657;52.022;5.534;2023-04-28T06:04:10;11.00;60.30
65046;DHT22;54657;52.022;5.534;2023-04-28T06:06:36;10.90;61.20
65046;DHT22;54657;52.022;5.534;2023-04-28T06:09:02;10.90;61.10
65046;DHT22;54657;52.022;5.534;2023-04-28T06:11:28;10.90;62.70
65046;DHT22;54657;52.022;5.534;2023-04-28T06:13:54;10.90;61.90
65046;DHT22;54657;52.022;5.534;2023-04-28T06:16:19;10.90;61.70
65046;DHT22;54657;52.022;5.534;2023-04-28T06:18:45;10.90;62.50
65046;DHT22;54657;52.022;5.534;2023-04-28T06:21:11;11.00;62.70
65046;DHT22;54657;52.022;5.534;2023-04-28T06:23:36;11.00;63.00
65046;DHT22;54657;52.022;5.534;2023-04-28T06:26:04;11.00;62.90
65046;DHT22;54657;52.022;5.534;2023-04-28T06:28:30;11.00;62.90
65046;DHT22;54657;52.022;5.534;2023-04-28T06:30:56;11.00;62.70
65046;DHT22;54657;52.022;5.534;2023-04-28T06:33:21;11.00;62.90
65046;DHT22;54657;52.022;5.534;2023-04-28T06:35:47;11.00;64.10
65046;DHT22;54657;52.022;5.534;2023-04-28T06:38:12;11.00;64.60
65046;DHT22;54657;52.022;5.534;2023-04-28T06:40:38;11.00;64.20
65046;DHT22;54657;52.022;5.534;2023-04-28T06:43:05;11.10;64.20
65046;DHT22;54657;52.022;5.534;2023-04-28T06:45:30;11.10;64.70
65046;DHT22;54657;52.022;5.534;2023-04-28T06:47:56;11.10;64.30
65046;DHT22;54657;52.022;5.534;2023-04-28T06:50:22;11.20;64.00
65046;DHT22;54657;52.022;5.534;2023-04-28T06:52:48;11.20;65.10
65046;DHT22;54657;52.022;5.534;2023-04-28T06:55:15;11.30;64.70
65046;DHT22;54657;52.022;5.534;2023-04-28T06:57:43;11.40;64.70
65046;DHT22;54657;52.022;5.534;2023-04-28T07:00:10;11.50;64.60
65046;DHT22;54657;52.022;5.534;2023-04-28T07:02:36;11.50;64.90
65046;DHT22;54657;52.022;5.534;2023-04-28T07:05:02;11.50;65.20
65046;DHT22;54657;52.022;5.534;2023-04-28T07:07:28;11.60;65.10
65046;DHT22;54657;52.022;5.534;2023-04-28T07:09:54;11.60;64.90
65046;DHT22;54657;52.022;5.534;2023-04-28T07:12:20;11.70;65.60
65046;DHT22;54657;52.022;5.534;2023-04-28T07:14:46;11.70;65.30
65046;DHT22;54657;52.022;5.534;2023-04-28T07:17:11;11.80;65.40
65046;DHT22;54657;52.022;5.534;2023-04-28T07:19:37;11.80;66.40
65046;DHT22;54657;52.022;5.534;2023-04-28T07:22:02;11.90;65.60
65046;DHT22;54657;52.022;5.534;2023-04-28T07:24:28;12.00;66.50
65046;DHT22;54657;52.022;5.534;2023-04-28T07:26:55;12.00;66.60
65046;DHT22;54657;52.022;5.534;2023-04-28T07:29:21;12.00;67.20
65046;DHT22;54657;52.022;5.534;2023-04-28T07:31:47;12.10;66.70
65046;DHT22;54657;52.022;5.534;2023-04-28T07:34:12;12.20;66.70
65046;DHT22;54657;52.022;5.534;2023-04-28T07:36:38;12.20;67.10
65046;DHT22;54657;52.022;5.534;2023-04-28T07:39:03;12.20;66.80
65046;DHT22;54657;52.022;5.534;2023-04-28T07:41:29;12.30;67.00
65046;DHT22;54657;52.022;5.534;2023-04-28T07:43:54;12.30;68.20
65046;DHT22;54657;52.022;5.534;2023-04-28T07:46:20;12.40;67.90
65046;DHT22;54657;52.022;5.534;2023-04-28T07:48:46;12.50;67.90
65046;DHT22;54657;52.022;5.534;2023-04-28T07:51:12;12.50;67.90
65046;DHT22;54657;52.022;5.534;2023-04-28T07:53:37;12.60;68.20
65046;DHT22;54657;52.022;5.534;2023-04-28T07:56:03;12.60;67.90
65046;DHT22;54657;52.022;5.534;2023-04-28T07:58:28;12.70;68.50
65046;DHT22;54657;52.022;5.534;2023-04-28T08:00:55;12.80;68.90
65046;DHT22;54657;52.022;5.534;2023-04-28T08:03:21;12.90;68.70
65046;DHT22;54657;52.022;5.534;2023-04-28T08:05:46;13.00;68.80
65046;DHT22;54657;52.022;5.534;2023-04-28T08:08:12;13.00;68.30
65046;DHT22;54657;52.022;5.534;2023-04-28T08:10:39;13.10;69.10
65046;DHT22;54657;52.022;5.534;2023-04-28T08:13:06;13.20;69.10
65046;DHT22;54657;52.022;5.534;2023-04-28T08:15:32;13.30;68.80
65046;DHT22;54657;52.022;5.534;2023-04-28T08:17:58;13.30;69.10
65046;DHT22;54657;52.022;5.534;2023-04-28T08:20:25;13.40;68.70
65046;DHT22;54657;52.022;5.534;2023-04-28T08:22:51;13.40;70.20
65046;DHT22;54657;52.022;5.534;2023-04-28T08:25:17;13.40;69.90
65046;DHT22;54657;52.022;5.534;2023-04-28T08:27:42;13.50;69.60
65046;DHT22;54657;52.022;5.534;2023-04-28T08:30:09;13.50;70.00
65046;DHT22;54657;52.022;5.534;2023-04-28T08:32:34;13.50;70.30
65046;DHT22;54657;52.022;5.534;2023-04-28T08:35:00;13.60;69.70
65046;DHT22;54657;52.022;5.534;2023-04-28T08:37:26;13.60;70.30
65046;DHT22;54657;52.022;5.534;2023-04-28T08:39:52;13.60;69.70
65046;DHT22;54657;52.022;5.534;2023-04-28T08:42:28;13.60;70.80
65046;DHT22;54657;52.022;5.534;2023-04-28T08:44:58;13.70;70.90
65046;DHT22;54657;52.022;5.534;2023-04-28T08:47:39;13.70;70.90
65046;DHT22;54657;52.022;5.534;2023-04-28T08:50:27;13.70;72.20
65046;DHT22;54657;52.022;5.534;2023-04-28T08:53:29;13.70;71.70
65046;DHT22;54657;52.022;5.534;2023-04-28T08:55:57;13.80;74.60
65046;DHT22;54657;52.022;5.534;2023-04-28T08:58:23;13.80;71.70
65046;DHT22;54657;52.022;5.534;2023-04-28T09:00:50;13.80;71.80
65046;DHT22;54657;52.022;5.534;2023-04-28T09:03:16;13.90;71.40
65046;DHT22;54657;52.022;5.534;2023-04-28T09:05:42;13.90;73.20
65046;DHT22;54657;52.022;5.534;2023-04-28T09:08:10;14.00;72.10
65046;DHT22;54657;52.022;5.534;2023-04-28T09:11:09;14.00;73.10
65046;DHT22;54657;52.022;5.534;2023-04-28T09:16:42;14.00;77.60
65046;DHT22;54657;52.022;5.534;2023-04-28T09:19:08;14.00;73.80
65046;DHT22;54657;52.022;5.534;2023-04-28T09:21:51;14.00;73.70
65046;DHT22;54657;52.022;5.534;2023-04-28T09:24:32;14.10;74.70
65046;DHT22;54657;52.022;5.534;2023-04-28T09:27:02;14.10;75.60
65046;DHT22;54657;52.022;5.534;2023-04-28T09:29:28;14.10;74.90
65046;DHT22;54657;52.022;5.534;2023-04-28T09:32:19;14.10;73.10
65046;DHT22;54657;52.022;5.534;2023-04-28T09:34:52;14.10;77.90
65046;DHT22;54657;52.022;5.534;2023-04-28T09:37:26;14.10;74.10
65046;DHT22;54657;52.022;5.534;2023-04-28T09:40:07;14.10;75.10
65046;DHT22;54657;52.022;5.534;2023-04-28T09:42:38;14.20;74.30
65046;DHT22;54657;52.022;5.534;2023-04-28T09:45:05;14.20;74.90
65046;DHT22;54657;52.022;5.534;2023-04-28T09:47:35;14.30;73.90
65046;DHT22;54657;52.022;5.534;2023-04-28T09:50:03;14.30;73.80
65046;DHT22;54657;52.022;5.534;2023-04-28T09:52:40;14.30;74.10
65046;DHT22;54657;52.022;5.534;2023-04-28T09:55:39;14.30;74.10
65046;DHT22;54657;52.022;5.534;2023-04-28T09:58:07;14.30;77.80
65046;DHT22;54657;52.022;5.534;2023-04-28T10:00:33;14.40;74.40
65046;DHT22;54657;52.022;5.534;2023-04-28T10:02:59;14.40;74.80
65046;DHT22;54657;52.022;5.534;2023-04-28T10:05:25;14.40;74.70
65046;DHT22;54657;52.022;5.534;2023-04-28T10:07:50;14.40;76.40
65046;DHT22;54657;52.022;5.534;2023-04-28T10:10:36;14.50;75.60
65046;DHT22;54657;52.022;5.534;2023-04-28T10:13:28;14.60;81.10
65046;DHT22;54657;52.022;5.534;2023-04-28T10:15:54;14.60;79.80
65046;DHT22;54657;52.022;5.534;2023-04-28T10:21:47;14.60;81.10
65046;DHT22;54657;52.022;5.534;2023-04-28T10:24:28;14.60;79.90
65046;DHT22;54657;52.022;5.534;2023-04-28T10:27:06;14.60;80.70
65046;DHT22;54657;52.022;5.534;2023-04-28T10:29:33;14.70;82.20
65046;DHT22;54657;52.022;5.534;2023-04-28T10:34:43;14.70;81.60
65046;DHT22;54657;52.022;5.534;2023-04-28T10:37:08;14.70;78.10
65046;DHT22;54657;52.022;5.534;2023-04-28T10:39:34;14.70;78.70
65046;DHT22;54657;52.022;5.534;2023-04-28T10:41:59;14.70;80.00
65046;DHT22;54657;52.022;5.534;2023-04-28T10:47:04;14.70;80.90
65046;DHT22;54657;52.022;5.534;2023-04-28T10:50:03;14.70;82.70
65046;DHT22;54657;52.022;5.534;2023-04-28T10:52:49;14.80;84.10
65046;DHT22;54657;52.022;5.534;2023-04-28T10:55:40;14.90;82.30
65046;DHT22;54657;52.022;5.534;2023-04-28T10:58:30;14.90;83.60
65046;DHT22;54657;52.022;5.534;2023-04-28T11:01:26;14.90;83.10
65046;DHT22;54657;52.022;5.534;2023-04-28T11:06:40;14.90;80.90
65046;DHT22;54657;52.022;5.534;2023-04-28T11:16:51;14.80;80.30
65046;DHT22;54657;52.022;5.534;2023-04-28T11:19:22;14.80;81.20
65046;DHT22;54657;52.022;5.534;2023-04-28T11:21:52;14.80;81.10
65046;DHT22;54657;52.022;5.534;2023-04-28T11:24:18;14.80;81.10
65046;DHT22;54657;52.022;5.534;2023-04-28T11:26:44;14.80;80.60
65046;DHT22;54657;52.022;5.534;2023-04-28T11:29:11;14.70;81.30
65046;DHT22;54657;52.022;5.534;2023-04-28T11:31:37;14.70;81.40
65046;DHT22;54657;52.022;5.534;2023-04-28T11:36:35;14.80;82.10
65046;DHT22;54657;52.022;5.534;2023-04-28T11:39:06;14.90;82.30
65046;DHT22;54657;52.022;5.534;2023-04-28T11:41:37;14.90;82.50
65046;DHT22;54657;52.022;5.534;2023-04-28T11:44:12;15.00;82.40
65046;DHT22;54657;52.022;5.534;2023-04-28T11:49:12;15.10;85.50
65046;DHT22;54657;52.022;5.534;2023-04-28T11:51:39;15.10;81.30
65046;DHT22;54657;52.022;5.534;2023-04-28T11:54:06;15.10;81.70
65046;DHT22;54657;52.022;5.534;2023-04-28T11:56:38;15.10;81.30
65046;DHT22;54657;52.022;5.534;2023-04-28T12:01:33;15.10;83.10
65046;DHT22;54657;52.022;5.534;2023-04-28T12:03:59;15.10;82.80
65046;DHT22;54657;52.022;5.534;2023-04-28T12:06:24;15.20;82.30
65046;DHT22;54657;52.022;5.534;2023-04-28T12:08:50;15.30;82.40
65046;DHT22;54657;52.022;5.534;2023-04-28T12:11:17;15.30;81.90
65046;DHT22;54657;52.022;5.534;2023-04-28T12:13:43;15.40;82.00
65046;DHT22;54657;52.022;5.534;2023-04-28T12:16:08;15.40;82.20
65046;DHT22;54657;52.022;5.534;2023-04-28T12:18:34;15.40;81.50
65046;DHT22;54657;52.022;5.534;2023-04-28T12:21:01;15.50;82.10
65046;DHT22;54657;52.022;5.534;2023-04-28T12:23:34;15.50;81.90
65046;DHT22;54657;52.022;5.534;2023-04-28T12:26:01;15.60;84.90
65046;DHT22;54657;52.022;5.534;2023-04-28T12:28:39;15.50;81.90
65046;DHT22;54657;52.022;5.534;2023-04-28T12:31:07;15.60;84.30
65046;DHT22;54657;52.022;5.534;2023-04-28T12:33:34;15.60;81.50
65046;DHT22;54657;52.022;5.534;2023-04-28T12:36:04;15.70;82.00
65046;DHT22;54657;52.022;5.534;2023-04-28T12:38:32;15.70;81.60
65046;DHT22;54657;52.022;5.534;2023-04-28T12:40:58;15.70;81.70
65046;DHT22;54657;52.022;5.534;2023-04-28T12:43:24;15.70;82.30
65046;DHT22;54657;52.022;5.534;2023-04-28T12:45:52;15.80;81.70
65046;DHT22;54657;52.022;5.534;2023-04-28T12:48:18;15.70;81.60
65046;DHT22;54657;52.022;5.534;2023-04-28T12:50:44;15.70;81.70
65046;DHT22;54657;52.022;5.534;2023-04-28T12:53:10;15.60;81.70
65046;DHT22;54657;52.022;5.534;2023-04-28T12:55:36;15.50;82.30
65046;DHT22;54657;52.022;5.534;2023-04-28T12:58:05;15.60;82.60
65046;DHT22;54657;52.022;5.534;2023-04-28T13:00:30;15.70;82.60
65046;DHT22;54657;52.022;5.534;2023-04-28T13:02:56;15.80;82.30
65046;DHT22;54657;52.022;5.534;2023-04-28T13:05:22;15.80;82.80
65046;DHT22;54657;52.022;5.534;2023-04-28T13:07:48;15.90;83.00
65046;DHT22;54657;52.022;5.534;2023-04-28T13:10:15;15.80;82.60
65046;DHT22;54657;52.022;5.534;2023-04-28T13:12:41;15.80;82.90
65046;DHT22;54657;52.022;5.534;2023-04-28T13:15:07;15.80;82.70
65046;DHT22;54657;52.022;5.534;2023-04-28T13:17:33;15.80;82.90
65046;DHT22;54657;52.022;5.534;2023-04-28T13:19:59;15.70;83.00
65046;DHT22;54657;52.022;5.534;2023-04-28T13:22:26;15.60;83.60
65046;DHT22;54657;52.022;5.534;2023-04-28T13:24:51;15.70;83.60
65046;DHT22;54657;52.022;5.534;2023-04-28T13:27:17;15.60;83.50
65046;DHT22;54657;52.022;5.534;2023-04-28T13:29:43;15.70;84.60
65046;DHT22;54657;52.022;5.534;2023-04-28T13:32:08;15.80;84.10
65046;DHT22;54657;52.022;5.534;2023-04-28T13:34:34;15.80;83.80
65046;DHT22;54657;52.022;5.534;2023-04-28T13:37:01;15.70;83.80
65046;DHT22;54657;52.022;5.534;2023-04-28T13:39:27;15.70;84.20
65046;DHT22;54657;52.022;5.534;2023-04-28T13:41:53;15.60;84.00
65046;DHT22;54657;52.022;5.534;2023-04-28T13:44:19;15.60;84.00
65046;DHT22;54657;52.022;5.534;2023-04-28T13:46:45;15.60;84.40
65046;DHT22;54657;52.022;5.534;2023-04-28T13:49:11;15.70;84.40
65046;DHT22;54657;52.022;5.534;2023-04-28T13:51:37;15.70;83.90
65046;DHT22;54657;52.022;5.534;2023-04-28T13:54:03;15.70;84.60
65046;DHT22;54657;52.022;5.534;2023-04-28T13:56:32;15.60;84.30
65046;DHT22;54657;52.022;5.534;2023-04-28T13:58:58;15.70;84.70
65046;DHT22;54657;52.022;5.534;2023-04-28T14:01:23;15.60;84.80
65046;DHT22;54657;52.022;5.534;2023-04-28T14:03:49;15.60;85.20
65046;DHT22;54657;52.022;5.534;2023-04-28T14:06:15;15.60;85.30
65046;DHT22;54657;52.022;5.534;2023-04-28T14:08:40;15.50;85.40
65046;DHT22;54657;52.022;5.534;2023-04-28T14:11:06;15.50;85.60
65046;DHT22;54657;52.022;5.534;2023-04-28T14:13:32;15.50;85.40
65046;DHT22;54657;52.022;5.534;2023-04-28T14:15:58;15.50;85.30
65046;DHT22;54657;52.022;5.534;2023-04-28T14:18:23;15.40;86.10
65046;DHT22;54657;52.022;5.534;2023-04-28T14:20:49;15.40;85.80
65046;DHT22;54657;52.022;5.534;2023-04-28T14:23:15;15.30;86.00
65046;DHT22;54657;52.022;5.534;2023-04-28T14:25:41;15.30;86.10
65046;DHT22;54657;52.022;5.534;2023-04-28T14:28:07;15.30;86.10
65046;DHT22;54657;52.022;5.534;2023-04-28T14:30:32;15.30;86.50
65046;DHT22;54657;52.022;5.534;2023-04-28T14:32:58;15.30;86.50
65046;DHT22;54657;52.022;5.534;2023-04-28T14:35:24;15.30;85.90
65046;DHT22;54657;52.022;5.534;2023-04-28T14:37:51;15.30;87.00
65046;DHT22;54657;52.022;5.534;2023-04-28T14:40:16;15.30;87.00
65046;DHT22;54657;52.022;5.534;2023-04-28T14:42:42;15.40;86.60
65046;DHT22;54657;52.022;5.534;2023-04-28T14:45:09;15.40;86.50
65046;DHT22;54657;52.022;5.534;2023-04-28T14:47:36;15.50;86.40
65046;DHT22;54657;52.022;5.534;2023-04-28T14:50:02;15.50;86.60
65046;DHT22;54657;52.022;5.534;2023-04-28T14:52:28;15.50;86.50
65046;DHT22;54657;52.022;5.534;2023-04-28T14:54:55;15.50;86.30
65046;DHT22;54657;52.022;5.534;2023-04-28T14:57:21;15.50;86.30
65046;DHT22;54657;52.022;5.534;2023-04-28T14:59:46;15.50;86.00
65046;DHT22;54657;52.022;5.534;2023-04-28T15:02:12;15.50;86.50
65046;DHT22;54657;52.022;5.534;2023-04-28T15:04:38;15.40;86.40
65046;DHT22;54657;52.022;5.534;2023-04-28T15:07:04;15.40;86.70
65046;DHT22;54657;52.022;5.534;2023-04-28T15:09:32;15.30;86.60
65046;DHT22;54657;52.022;5.534;2023-04-28T15:11:58;15.30;86.80
65046;DHT22;54657;52.022;5.534;2023-04-28T15:14:23;15.20;87.50
65046;DHT22;54657;52.022;5.534;2023-04-28T15:16:49;15.20;87.60
65046;DHT22;54657;52.022;5.534;2023-04-28T15:19:14;15.20;87.70
65046;DHT22;54657;52.022;5.534;2023-04-28T15:21:40;15.10;87.30
65046;DHT22;54657;52.022;5.534;2023-04-28T15:24:06;15.10;87.90
65046;DHT22;54657;52.022;5.534;2023-04-28T15:30:45;15.10;89.50
65046;DHT22;54657;52.022;5.534;2023-04-28T15:33:07;15.10;90.00
65046;DHT22;54657;52.022;5.534;2023-04-28T15:35:33;15.10;87.90
65046;DHT22;54657;52.022;5.534;2023-04-28T15:38:01;15.10;87.90
65046;DHT22;54657;52.022;5.534;2023-04-28T15:40:27;15.10;88.00
65046;DHT22;54657;52.022;5.534;2023-04-28T15:42:53;15.00;87.80
65046;DHT22;54657;52.022;5.534;2023-04-28T15:45:19;15.10;87.80
65046;DHT22;54657;52.022;5.534;2023-04-28T15:47:46;15.10;87.80
65046;DHT22;54657;52.022;5.534;2023-04-28T15:50:12;15.10;88.80
65046;DHT22;54657;52.022;5.534;2023-04-28T15:52:42;15.10;88.10
65046;DHT22;54657;52.022;5.534;2023-04-28T15:55:17;15.10;88.90
65046;DHT22;54657;52.022;5.534;2023-04-28T15:57:43;15.10;88.20
65046;DHT22;54657;52.022;5.534;2023-04-28T16:00:12;15.00;88.10
65046;DHT22;54657;52.022;5.534;2023-04-28T16:02:41;14.90;89.20
65046;DHT22;54657;52.022;5.534;2023-04-28T16:05:07;14.80;92.50